createdAt,value
2022-08-23T00:02:26.386Z,23.18
2022-08-23T00:05:08.687Z,23.33
2022-08-23T00:07:41.758Z,23.23
2022-08-23T00:10:14.393Z,23.17
2022-08-23T00:12:40.989Z,22.93
2022-08-23T00:15:08.896Z,23.11
2022-08-23T00:17:36.358Z,23.25
2022-08-23T00:20:09.878Z,23.14
2022-08-23T00:22:38.187Z,23.13
2022-08-23T00:25:07.165Z,23.34
2022-08-23T00:27:35.049Z,23.26
2022-08-23T00:30:03.001Z,23.23
2022-08-23T00:32:32.978Z,23.21
2022-08-23T00:35:00.648Z,23.18
2022-08-23T00:37:32.100Z,23.17
2022-08-23T00:40:00.038Z,23.23
2022-08-23T00:42:50.709Z,23.13
2022-08-23T00:45:41.628Z,23.16
2022-08-23T00:48:08.494Z,23.14
2022-08-23T00:50:42.637Z,23.00
2022-08-23T00:53:38.060Z,23.15
2022-08-23T00:56:09.032Z,22.89
2022-08-23T00:58:36.159Z,23.13
2022-08-23T01:01:06.184Z,23.03
2022-08-23T01:03:38.717Z,23.17
2022-08-23T01:06:16.977Z,22.98
2022-08-23T01:08:48.756Z,23.06
2022-08-23T01:11:32.894Z,23.13
2022-08-23T01:14:11.931Z,23.07
2022-08-23T01:16:46.163Z,23.13
2022-08-23T01:19:21.872Z,23.25
2022-08-23T01:22:02.299Z,23.10
2022-08-23T01:25:05.972Z,23.11
2022-08-23T01:27:15.890Z,23.13
2022-08-23T01:29:42.512Z,22.92
2022-08-23T01:32:09.858Z,23.02
2022-08-23T01:34:37.043Z,22.90
2022-08-23T01:37:11.500Z,23.00
2022-08-23T01:39:38.359Z,23.00
2022-08-23T01:42:07.544Z,23.00
2022-08-23T01:44:34.905Z,22.79
2022-08-23T01:47:01.356Z,22.80
2022-08-23T01:49:27.875Z,22.95
2022-08-23T01:51:55.514Z,23.01
2022-08-23T01:54:22.215Z,22.97
2022-08-23T01:56:49.174Z,22.83
2022-08-23T01:59:15.690Z,22.94
2022-08-23T02:01:42.255Z,22.89
2022-08-23T02:04:08.867Z,22.83
2022-08-23T02:06:35.358Z,22.86
2022-08-23T02:09:03.562Z,23.01
2022-08-23T02:11:42.480Z,22.92
2022-08-23T02:14:12.757Z,22.62
2022-08-23T02:16:53.733Z,22.76
2022-08-23T02:19:31.125Z,22.61
2022-08-23T02:21:57.646Z,22.62
2022-08-23T02:24:25.334Z,22.76
2022-08-23T02:26:56.672Z,22.85
2022-08-23T02:29:25.876Z,22.73
2022-08-23T02:31:52.537Z,22.83
2022-08-23T02:34:19.907Z,22.68
2022-08-23T02:36:47.496Z,22.51
2022-08-23T02:39:16.065Z,22.63
2022-08-23T02:41:42.857Z,22.48
2022-08-23T02:44:10.970Z,22.51
2022-08-23T02:46:38.698Z,22.49
2022-08-23T02:49:05.339Z,22.61
2022-08-23T02:51:32.916Z,22.59
2022-08-23T02:53:59.423Z,22.56
2022-08-23T02:56:25.901Z,22.50
2022-08-23T02:58:54.404Z,22.44
2022-08-23T03:01:39.993Z,22.36
2022-08-23T03:04:09.398Z,22.37
2022-08-23T03:06:36.358Z,22.36
2022-08-23T03:09:05.038Z,22.30
2022-08-23T03:11:31.744Z,22.31
2022-08-23T03:13:58.420Z,22.35
2022-08-23T03:16:25.428Z,22.31
2022-08-23T03:18:52.326Z,22.12
2022-08-23T03:21:20.785Z,22.28
2022-08-23T03:23:48.513Z,22.22
2022-08-23T03:26:16.129Z,22.16
2022-08-23T03:28:44.709Z,22.17
2022-08-23T03:31:13.013Z,22.08
2022-08-23T03:33:40.334Z,21.99
2022-08-23T03:36:10.472Z,21.83
2022-08-23T03:38:39.416Z,21.85
2022-08-23T03:41:06.598Z,21.80
2022-08-23T03:43:34.565Z,21.64
2022-08-23T03:46:01.047Z,21.57
2022-08-23T03:48:27.633Z,21.66
2022-08-23T03:50:54.950Z,21.59
2022-08-23T03:53:23.698Z,21.62
2022-08-23T03:55:53.249Z,21.57
2022-08-23T03:58:21.559Z,21.48
2022-08-23T04:00:48.316Z,21.37
2022-08-23T04:03:14.905Z,21.49
2022-08-23T04:05:41.424Z,21.47
2022-08-23T04:08:10.055Z,21.43
2022-08-23T04:10:39.168Z,21.23
2022-08-23T04:13:07.344Z,21.32
2022-08-23T04:15:33.877Z,21.23
2022-08-23T04:18:01.691Z,21.24
2022-08-23T04:20:29.002Z,20.99
2022-08-23T04:22:56.510Z,21.15
2022-08-23T04:25:32.853Z,21.20
2022-08-23T04:28:02.932Z,21.06
2022-08-23T04:30:29.770Z,21.07
2022-08-23T04:32:56.282Z,21.13
2022-08-23T04:35:23.744Z,21.14
2022-08-23T04:37:50.624Z,21.09
2022-08-23T04:40:36.271Z,20.95
2022-08-23T04:43:03.799Z,20.93
2022-08-23T04:45:32.492Z,20.86
2022-08-23T04:47:59.252Z,20.88
2022-08-23T04:50:26.147Z,20.86
2022-08-23T04:52:53.042Z,20.88
2022-08-23T04:55:19.824Z,20.82
2022-08-23T04:57:46.330Z,20.79
2022-08-23T05:00:15.079Z,20.78
2022-08-23T05:02:41.770Z,20.76
2022-08-23T05:05:11.057Z,20.70
2022-08-23T05:07:42.731Z,20.73
2022-08-23T05:10:12.849Z,20.80
2022-08-23T05:12:39.698Z,20.80
2022-08-23T05:15:06.902Z,20.88
2022-08-23T05:17:33.374Z,20.88
2022-08-23T05:19:59.859Z,20.85
2022-08-23T05:22:26.493Z,20.83
2022-08-23T05:24:53.010Z,20.97
2022-08-23T05:27:19.482Z,21.05
2022-08-23T05:29:46.461Z,21.23
2022-08-23T05:32:13.060Z,21.16
2022-08-23T05:34:39.661Z,20.95
2022-08-23T05:37:06.162Z,21.27
2022-08-23T05:39:36.440Z,21.16
2022-08-23T05:42:04.792Z,21.27
2022-08-23T05:44:36.174Z,21.31
2022-08-23T05:47:11.265Z,21.43
2022-08-23T05:49:39.513Z,21.39
2022-08-23T05:52:07.885Z,21.52
2022-08-23T05:54:35.269Z,21.57
2022-08-23T05:57:03.233Z,21.64
2022-08-23T05:59:30.049Z,21.90
2022-08-23T06:01:57.352Z,21.71
2022-08-23T06:04:23.959Z,21.79
2022-08-23T06:06:50.487Z,21.98
2022-08-23T06:09:18.245Z,21.86
2022-08-23T06:11:48.530Z,21.89
2022-08-23T06:14:15.553Z,21.96
2022-08-23T06:16:46.436Z,22.09
2022-08-23T06:19:14.351Z,22.09
2022-08-23T06:21:41.792Z,22.17
2022-08-23T06:24:08.434Z,22.07
2022-08-23T06:26:38.893Z,22.15
2022-08-23T06:29:09.335Z,22.22
2022-08-23T06:31:47.344Z,22.22
2022-08-23T06:34:21.761Z,22.23
2022-08-23T06:36:52.814Z,22.42
2022-08-23T06:39:21.206Z,22.56
2022-08-23T06:41:50.496Z,22.65
2022-08-23T06:44:18.844Z,22.47
2022-08-23T06:46:47.873Z,22.56
2022-08-23T06:49:14.813Z,22.59
2022-08-23T06:51:46.000Z,22.66
2022-08-23T06:54:15.240Z,22.81
2022-08-23T06:56:43.542Z,22.92
2022-08-23T06:59:10.319Z,22.98
2022-08-23T07:01:46.352Z,22.88
2022-08-23T07:04:17.961Z,23.17
2022-08-23T07:06:44.682Z,23.28
2022-08-23T07:09:11.500Z,23.27
2022-08-23T07:11:39.377Z,23.40
2022-08-23T07:14:10.434Z,23.47
2022-08-23T07:16:48.054Z,23.58
2022-08-23T07:19:15.297Z,23.68
2022-08-23T07:21:43.022Z,23.68
2022-08-23T07:24:10.078Z,23.54
2022-08-23T07:26:39.155Z,23.63
2022-08-23T07:29:09.965Z,23.57
2022-08-23T07:31:42.162Z,23.78
2022-08-23T07:34:09.037Z,23.86
2022-08-23T07:36:39.134Z,23.90
2022-08-23T07:39:07.530Z,23.89
2022-08-23T07:41:35.670Z,24.00
2022-08-23T07:44:04.455Z,24.04
2022-08-23T07:46:33.211Z,23.99
2022-08-23T07:49:01.799Z,24.29
2022-08-23T07:51:31.631Z,24.12
2022-08-23T07:53:58.697Z,24.25
2022-08-23T07:56:25.169Z,24.40
2022-08-23T07:58:52.026Z,24.43
2022-08-23T08:01:23.463Z,24.58
2022-08-23T08:03:55.145Z,24.66
2022-08-23T08:06:46.157Z,24.59
2022-08-23T08:09:14.617Z,24.73
2022-08-23T08:11:44.183Z,24.63
2022-08-23T08:14:11.598Z,24.74
2022-08-23T08:16:45.523Z,24.72
2022-08-23T08:19:15.302Z,24.58
2022-08-23T08:21:42.869Z,24.62
2022-08-23T08:24:10.556Z,24.51
2022-08-23T08:26:37.377Z,24.70
2022-08-23T08:29:04.334Z,24.85
2022-08-23T08:31:30.891Z,24.99
2022-08-23T08:33:57.695Z,25.16
2022-08-23T08:36:44.008Z,25.42
2022-08-23T08:39:14.396Z,25.43
2022-08-23T08:41:57.450Z,25.42
2022-08-23T08:44:52.188Z,25.59
2022-08-23T08:47:37.286Z,25.43
2022-08-23T08:50:06.578Z,25.67
2022-08-23T08:52:36.818Z,25.48
2022-08-23T08:55:19.538Z,25.44
2022-08-23T08:57:48.246Z,25.73
2022-08-23T09:00:31.571Z,26.04
2022-08-23T09:03:00.762Z,25.86
2022-08-23T09:05:31.688Z,26.16
2022-08-23T09:08:42.171Z,26.09
2022-08-23T09:11:22.478Z,25.97
2022-08-23T09:14:20.012Z,26.03
2022-08-23T09:16:53.913Z,26.03
2022-08-23T09:19:23.048Z,26.46
2022-08-23T09:22:02.383Z,26.59
2022-08-23T09:24:30.604Z,26.75
2022-08-23T09:26:57.585Z,26.91
2022-08-23T09:29:36.228Z,26.93
2022-08-23T09:32:07.360Z,27.04
2022-08-23T09:34:42.571Z,27.31
2022-08-23T09:37:16.298Z,27.50
2022-08-23T09:39:51.840Z,27.24
2022-08-23T09:42:29.717Z,27.44
2022-08-23T09:44:57.016Z,27.29
2022-08-23T09:47:33.812Z,27.48
2022-08-23T09:50:39.859Z,27.53
2022-08-23T09:53:12.159Z,27.34
2022-08-23T09:55:48.618Z,27.60
2022-08-23T09:58:21.998Z,27.90
2022-08-23T10:01:07.607Z,27.76
2022-08-23T10:03:34.194Z,27.92
2022-08-23T10:06:02.413Z,27.76
2022-08-23T10:08:33.571Z,27.80
2022-08-23T10:11:05.941Z,28.05
2022-08-23T10:13:36.679Z,28.14
2022-08-23T10:16:25.977Z,28.31
2022-08-23T10:19:13.390Z,28.30
2022-08-23T10:21:57.467Z,28.27
2022-08-23T10:24:28.244Z,28.75
2022-08-23T10:27:45.969Z,28.56
2022-08-23T10:30:17.244Z,28.63
2022-08-23T10:33:03.723Z,28.60
2022-08-23T10:35:53.861Z,28.39
2022-08-23T10:38:38.396Z,28.91
2022-08-23T10:41:41.948Z,29.01
2022-08-23T10:44:42.612Z,28.55
2022-08-23T10:47:27.496Z,28.68
2022-08-23T10:49:55.896Z,29.23
2022-08-23T10:52:31.096Z,29.60
2022-08-23T10:55:17.151Z,29.43
2022-08-23T10:57:47.614Z,29.36
2022-08-23T11:00:21.600Z,29.72
2022-08-23T11:03:03.277Z,29.77
2022-08-23T11:05:33.707Z,30.11
2022-08-23T11:08:05.557Z,30.27
2022-08-23T11:10:53.576Z,29.73
2022-08-23T11:13:29.481Z,29.75
2022-08-23T11:16:01.035Z,29.97
2022-08-23T11:18:33.822Z,29.84
2022-08-23T11:21:10.782Z,30.40
2022-08-23T11:23:47.810Z,30.51
2022-08-23T11:26:28.371Z,30.82
2022-08-23T11:29:01.131Z,30.70
2022-08-23T11:31:31.999Z,30.82
2022-08-23T11:34:11.227Z,30.69
2022-08-23T11:36:38.610Z,30.62
2022-08-23T11:39:11.537Z,30.67
2022-08-23T11:41:55.935Z,30.87
2022-08-23T11:44:38.342Z,30.33
2022-08-23T11:47:11.138Z,30.66
2022-08-23T11:49:44.223Z,31.13
2022-08-23T11:52:47.457Z,31.39
2022-08-23T11:55:17.551Z,31.63
2022-08-23T11:58:08.734Z,31.61
2022-08-23T12:00:47.421Z,31.87
2022-08-23T12:03:32.490Z,31.86
2022-08-23T12:06:08.227Z,31.81
2022-08-23T12:08:51.704Z,31.66
2022-08-23T12:11:20.140Z,31.75
2022-08-23T12:13:56.977Z,31.16
2022-08-23T12:16:25.966Z,31.37
2022-08-23T12:19:00.961Z,31.60
2022-08-23T12:21:40.208Z,32.07
2022-08-23T12:24:32.306Z,32.15
2022-08-23T12:27:21.445Z,32.29
2022-08-23T12:30:11.124Z,32.56
2022-08-23T12:33:23.649Z,32.17
2022-08-23T12:36:16.711Z,32.28
2022-08-23T12:39:09.232Z,32.67
2022-08-23T12:41:48.701Z,32.84
2022-08-23T12:44:20.206Z,32.08
2022-08-23T12:46:49.561Z,32.09
2022-08-23T12:49:35.047Z,32.16
2022-08-23T12:52:08.231Z,32.23
2022-08-23T12:54:34.650Z,31.77
2022-08-23T12:57:01.956Z,32.25
2022-08-23T12:59:40.174Z,32.35
2022-08-23T13:02:18.416Z,32.10
2022-08-23T13:04:44.901Z,32.62
2022-08-23T13:07:19.682Z,32.63
2022-08-23T13:09:53.683Z,32.63
2022-08-23T13:12:21.913Z,32.65
2022-08-23T13:14:51.190Z,32.72
2022-08-23T13:17:36.667Z,32.77
2022-08-23T13:20:04.094Z,32.64
2022-08-23T13:22:55.636Z,32.75
2022-08-23T13:25:31.584Z,33.22
2022-08-23T13:28:06.631Z,33.43
2022-08-23T13:30:36.726Z,33.33
2022-08-23T13:33:07.659Z,33.34
2022-08-23T13:35:37.748Z,33.46
2022-08-23T13:38:18.299Z,33.80
2022-08-23T13:41:03.781Z,33.68
2022-08-23T13:43:45.441Z,33.84
2022-08-23T13:46:23.123Z,33.99
2022-08-23T13:48:53.033Z,34.03
2022-08-23T13:52:24.603Z,33.97
2022-08-23T13:54:50.893Z,33.52
2022-08-23T13:57:20.765Z,33.79
2022-08-23T13:59:55.047Z,33.92
2022-08-23T14:02:23.833Z,33.99
2022-08-23T14:04:50.928Z,33.56
2022-08-23T14:07:18.255Z,33.51
2022-08-23T14:09:45.231Z,33.50
2022-08-23T14:12:17.134Z,33.71
2022-08-23T14:14:45.717Z,33.67
2022-08-23T14:17:12.853Z,33.92
2022-08-23T14:22:33.105Z,33.79
2022-08-23T14:24:59.590Z,33.88
2022-08-23T14:27:26.357Z,33.47
2022-08-23T14:29:52.910Z,33.50
2022-08-23T14:32:19.446Z,33.60
2022-08-23T14:34:45.922Z,33.98
2022-08-23T14:39:59.485Z,33.50
2022-08-23T14:42:26.293Z,33.88
2022-08-23T14:44:52.857Z,33.91
2022-08-23T14:47:19.556Z,33.75
2022-08-23T14:49:46.128Z,33.57
2022-08-23T14:52:14.621Z,33.76
2022-08-23T14:54:42.039Z,33.79
2022-08-23T14:57:08.558Z,33.75
2022-08-23T14:59:35.581Z,33.52
2022-08-23T15:02:03.658Z,33.57
2022-08-23T15:04:34.646Z,33.93
2022-08-23T15:07:19.105Z,33.90
2022-08-23T15:09:51.281Z,33.61
2022-08-23T15:15:12.131Z,33.02
2022-08-23T15:17:52.148Z,33.18
2022-08-23T15:20:25.350Z,33.15
2022-08-23T15:23:05.463Z,33.33
2022-08-23T15:25:35.363Z,33.28
2022-08-23T15:28:03.484Z,33.61
2022-08-23T15:30:33.510Z,32.67
2022-08-23T15:33:00.579Z,32.53
2022-08-23T15:35:28.658Z,32.89
2022-08-23T15:37:57.269Z,32.80
2022-08-23T15:40:25.602Z,32.62
2022-08-23T15:42:52.414Z,32.65
2022-08-23T15:45:19.520Z,33.01
2022-08-23T15:47:53.172Z,32.88
2022-08-23T15:50:23.764Z,32.99
2022-08-23T15:52:50.839Z,33.10
2022-08-23T15:55:18.238Z,33.14
2022-08-23T15:57:48.501Z,32.97
2022-08-23T16:00:18.605Z,33.02
2022-08-23T16:03:18.792Z,33.15
2022-08-23T16:05:33.087Z,32.53
2022-08-23T16:08:00.070Z,32.79
2022-08-23T16:10:28.328Z,32.64
2022-08-23T16:12:55.281Z,32.59
2022-08-23T16:15:22.150Z,32.56
2022-08-23T16:17:48.968Z,32.81
2022-08-23T16:20:15.586Z,32.30
2022-08-23T16:22:42.139Z,32.31
2022-08-23T16:25:09.396Z,32.27
2022-08-23T16:27:36.537Z,31.94
2022-08-23T16:30:05.369Z,32.04
2022-08-23T16:32:32.113Z,32.11
2022-08-23T16:34:58.617Z,32.17
2022-08-23T16:37:25.540Z,32.19
2022-08-23T16:39:52.302Z,32.07
2022-08-23T16:42:19.002Z,32.07
2022-08-23T16:44:45.517Z,32.09
2022-08-23T16:47:12.763Z,31.95
2022-08-23T16:49:40.026Z,32.16
2022-08-23T16:52:06.840Z,32.11
2022-08-23T16:54:33.442Z,31.95
2022-08-23T16:57:00.006Z,32.11
2022-08-23T16:59:26.484Z,32.14
2022-08-23T17:01:58.808Z,32.18
2022-08-23T17:04:30.377Z,32.21
2022-08-23T17:06:58.032Z,32.30
2022-08-23T17:09:27.881Z,32.00
2022-08-23T17:11:58.592Z,32.09
2022-08-23T17:14:26.171Z,32.12
2022-08-23T17:16:53.043Z,32.20
2022-08-23T17:19:19.681Z,32.22
2022-08-23T17:21:46.194Z,32.00
2022-08-23T17:24:12.797Z,32.12
2022-08-23T17:26:39.591Z,32.04
2022-08-23T17:29:09.311Z,32.11
2022-08-23T17:31:37.863Z,32.13
2022-08-23T17:34:05.357Z,32.17
2022-08-23T17:36:47.630Z,31.55
2022-08-23T17:39:17.738Z,31.34
2022-08-23T17:41:45.652Z,31.31
2022-08-23T17:44:12.812Z,31.15
2022-08-23T17:46:41.616Z,31.55
2022-08-23T17:49:09.164Z,31.38
2022-08-23T17:51:36.828Z,31.31
2022-08-23T17:54:04.928Z,31.50
2022-08-23T17:56:31.489Z,31.45
2022-08-23T17:58:58.137Z,31.40
2022-08-23T18:01:24.745Z,31.36
2022-08-23T18:03:51.275Z,31.36
2022-08-23T18:06:18.199Z,31.40
2022-08-23T18:08:45.998Z,31.12
2022-08-23T18:11:13.783Z,31.12
2022-08-23T18:13:40.359Z,31.16
2022-08-23T18:16:07.638Z,31.03
2022-08-23T18:18:34.565Z,30.90
2022-08-23T18:21:06.220Z,30.89
2022-08-23T18:23:32.845Z,30.87
2022-08-23T18:26:08.555Z,30.71
2022-08-23T18:28:35.241Z,30.56
2022-08-23T18:31:03.717Z,30.41
2022-08-23T18:33:46.321Z,30.31
2022-08-23T18:36:13.402Z,30.23
2022-08-23T18:38:39.936Z,30.19
2022-08-23T18:41:06.638Z,30.05
2022-08-23T18:43:37.596Z,29.87
2022-08-23T18:46:05.352Z,29.76
2022-08-23T18:48:32.051Z,29.70
2022-08-23T18:50:58.621Z,29.58
2022-08-23T18:53:25.230Z,29.54
2022-08-23T18:55:52.401Z,29.50
2022-08-23T18:58:20.041Z,29.44
2022-08-23T19:00:47.801Z,29.22
2022-08-23T19:03:17.728Z,29.14
2022-08-23T19:05:45.300Z,29.04
2022-08-23T19:08:12.759Z,29.02
2022-08-23T19:10:41.392Z,29.02
2022-08-23T19:13:09.105Z,28.97
2022-08-23T19:15:36.890Z,28.88
2022-08-23T19:18:04.267Z,28.75
2022-08-23T19:20:30.806Z,28.56
2022-08-23T19:22:57.594Z,28.64
2022-08-23T19:25:24.869Z,28.62
2022-08-23T19:27:51.954Z,28.56
2022-08-23T19:30:18.552Z,28.40
2022-08-23T19:32:45.209Z,28.33
2022-08-23T19:35:13.649Z,28.38
2022-08-23T19:37:40.152Z,28.04
2022-08-23T19:40:07.659Z,28.09
2022-08-23T19:42:37.018Z,28.06
2022-08-23T19:45:04.933Z,28.10
2022-08-23T19:47:31.482Z,28.08
2022-08-23T19:49:58.672Z,28.08
2022-08-23T19:52:25.481Z,28.04
2022-08-23T19:54:51.962Z,28.03
2022-08-23T19:57:18.494Z,27.94
2022-08-23T19:59:45.448Z,28.00
2022-08-23T20:02:13.857Z,27.94
2022-08-23T20:04:40.471Z,27.86
2022-08-23T20:07:07.825Z,27.78
2022-08-23T20:09:50.673Z,27.77
2022-08-23T20:12:17.692Z,27.50
2022-08-23T20:14:46.022Z,27.51
2022-08-23T20:17:12.873Z,27.64
2022-08-23T20:19:43.784Z,27.54
2022-08-23T20:22:37.629Z,27.08
2022-08-23T20:25:36.063Z,27.48
2022-08-23T20:28:08.794Z,27.42
2022-08-23T20:30:36.247Z,27.32
2022-08-23T20:33:03.768Z,27.32
2022-08-23T20:35:30.492Z,27.30
2022-08-23T20:38:08.387Z,27.25
2022-08-23T20:40:54.083Z,27.23
2022-08-23T20:43:27.374Z,27.02
2022-08-23T20:45:54.698Z,26.90
2022-08-23T20:48:21.926Z,26.87
2022-08-23T20:50:51.930Z,26.73
2022-08-23T20:53:18.673Z,26.57
2022-08-23T20:55:46.115Z,26.77
2022-08-23T20:58:16.045Z,26.57
2022-08-23T21:00:42.594Z,26.56
2022-08-23T21:03:09.353Z,26.53
2022-08-23T21:05:35.860Z,26.43
2022-08-23T21:08:03.461Z,26.42
2022-08-23T21:10:30.677Z,26.45
2022-08-23T21:12:57.211Z,26.47
2022-08-23T21:15:23.719Z,26.36
2022-08-23T21:17:50.217Z,26.35
2022-08-23T21:20:16.817Z,26.25
2022-08-23T21:22:43.472Z,26.11
2022-08-23T21:25:10.221Z,26.02
2022-08-23T21:27:36.801Z,25.93
2022-08-23T21:30:05.633Z,25.93
2022-08-23T21:32:32.509Z,25.98
2022-08-23T21:34:59.612Z,25.85
2022-08-23T21:37:26.713Z,25.96
2022-08-23T21:39:53.243Z,25.68
2022-08-23T21:42:23.143Z,25.72
2022-08-23T21:44:50.278Z,25.72
2022-08-23T21:47:16.769Z,25.73
2022-08-23T21:49:43.476Z,25.82
2022-08-23T21:52:09.949Z,25.68
2022-08-23T21:54:40.220Z,25.62
2022-08-23T21:57:09.386Z,25.56
2022-08-23T21:59:35.912Z,25.54
2022-08-23T22:02:02.622Z,25.73
2022-08-23T22:04:30.096Z,25.62
2022-08-23T22:06:59.920Z,25.62
2022-08-23T22:09:31.204Z,25.60
2022-08-23T22:12:00.336Z,25.49
2022-08-23T22:14:31.301Z,25.44
2022-08-23T22:16:59.187Z,25.33
2022-08-23T22:19:25.749Z,25.37
2022-08-23T22:21:52.794Z,25.22
2022-08-23T22:24:25.260Z,25.22
2022-08-23T22:26:52.788Z,25.06
2022-08-23T22:29:19.389Z,25.12
2022-08-23T22:31:47.730Z,25.13
2022-08-23T22:34:14.674Z,25.14
2022-08-23T22:36:42.061Z,25.11
2022-08-23T22:39:08.991Z,25.01
2022-08-23T22:41:35.519Z,25.13
2022-08-23T22:44:03.556Z,24.92
2022-08-23T22:46:31.906Z,24.94
2022-08-23T22:48:58.468Z,24.96
2022-08-23T22:51:28.667Z,24.92
2022-08-23T22:53:58.864Z,24.79
2022-08-23T22:56:29.369Z,24.73
2022-08-23T22:58:56.463Z,24.60
2022-08-23T23:01:34.147Z,24.52
2022-08-23T23:04:02.492Z,24.63
2022-08-23T23:06:29.593Z,24.64
2022-08-23T23:08:56.722Z,24.41
2022-08-23T23:11:24.172Z,24.35
2022-08-23T23:13:51.155Z,24.35
2022-08-23T23:16:21.554Z,24.46
2022-08-23T23:19:11.391Z,24.39
2022-08-23T23:21:41.498Z,24.35
2022-08-23T23:24:10.649Z,24.26
2022-08-23T23:26:38.083Z,24.17
2022-08-23T23:29:06.322Z,24.27
2022-08-23T23:31:32.798Z,24.34
2022-08-23T23:33:59.306Z,24.41
2022-08-23T23:36:25.870Z,24.23
2022-08-23T23:38:52.556Z,24.14
2022-08-23T23:41:21.166Z,24.18
2022-08-23T23:43:47.740Z,24.27
2022-08-23T23:46:15.940Z,24.19
2022-08-23T23:48:44.666Z,24.07
2022-08-23T23:51:14.256Z,24.14
2022-08-23T23:53:41.148Z,24.07
2022-08-23T23:56:10.497Z,24.20
2022-08-23T23:58:37.948Z,24.13
